Terminal Aerodrome Forecast
Issued by NWS

Home | Current Version | Previous Version | Graphics & Text | Print | Product List | Glossary On
Versions: 1 2 3 4 5 6 7 8 9 10 11 12 13 14 15 16 17 18
000
FTUS42 KMHX 130500
TAFOAJ
TAF
KOAJ 130531Z 1306/1406 00000KT P6SM SKC
     FM130700 00000KT 3SM BR SKC
     FM130900 00000KT 2SM BR SCT005
     FM131300 23005KT P6SM SKC
     FM131700 21007KT P6SM SCT040
      AMD LTD TO CLD VIS AND WIND=

USA.gov is the U.S. government's official web portal to all federal, state and local government web resources and services.